Time;durP1;ratioP1;P1;durP2;ratioP2;P2;SDS_P1;SDS_P2;PMS_P1;PMS_P2;Temp;Humidity;BMP_temperature;BMP_pressure;BME280_temperature;BME280_humidity;BME280_pressure;Samples;Min_cycle;Max_cycle;Signal;HPM_P1;HPM_P2
2023/04/21 00:02:38;;;;;;;19.37;6.47;;;6.60;99.90;;;;;;4422861;28;658352;-69
2023/04/21 00:05:25;;;;;;;16.50;5.83;;;6.60;99.90;;;;;;4433549;28;658932;-71
2023/04/21 00:08:13;;;;;;;16.87;4.73;;;6.50;99.90;;;;;;4437764;28;659534;-70
2023/04/21 00:11:00;;;;;;;14.37;4.07;;;6.60;99.90;;;;;;4427327;28;658653;-71
2023/04/21 00:13:47;;;;;;;11.57;3.77;;;6.50;99.90;;;;;;4444070;28;658860;-70
2023/04/21 00:16:35;;;;;;;10.10;3.63;;;6.50;99.90;;;;;;4443136;28;658421;-70
2023/04/21 00:19:24;;;;;;;17.97;3.57;;;6.60;99.90;;;;;;4450419;28;658683;-70
2023/04/21 00:22:13;;;;;;;8.80;3.80;;;6.50;99.90;;;;;;4417141;28;659245;-70
2023/04/21 00:25:01;;;;;;;13.03;4.10;;;6.60;99.90;;;;;;4435374;28;657650;-70
2023/04/21 00:27:48;;;;;;;17.03;4.77;;;6.60;99.90;;;;;;4447906;28;658931;-70
2023/04/21 00:30:35;;;;;;;13.80;4.70;;;6.70;99.90;;;;;;4429327;28;659275;-70
2023/04/21 00:33:22;;;;;;;12.00;5.07;;;6.90;99.90;;;;;;4441244;28;658653;-70
2023/04/21 00:36:12;;;;;;;12.63;4.33;;;7.00;99.90;;;;;;4446920;28;659083;-70
2023/04/21 00:38:59;;;;;;;10.90;5.47;;;7.20;99.90;;;;;;4437100;28;658775;-69
2023/04/21 00:41:46;;;;;;;12.20;5.47;;;7.30;99.90;;;;;;4429133;28;660356;-70
2023/04/21 00:44:33;;;;;;;12.70;5.97;;;7.50;99.90;;;;;;4453251;28;659195;-70
2023/04/21 00:47:20;;;;;;;13.17;5.40;;;7.70;99.90;;;;;;4438845;28;658996;-70
2023/04/21 00:50:08;;;;;;;11.97;5.40;;;7.90;99.90;;;;;;4450543;28;658998;-70
2023/04/21 00:52:57;;;;;;;20.53;6.47;;;8.30;99.90;;;;;;4424456;28;659535;-71
2023/04/21 00:55:44;;;;;;;14.23;6.00;;;8.40;99.90;;;;;;4447655;28;658453;-70
2023/04/21 00:58:32;;;;;;;16.07;6.63;;;8.50;99.90;;;;;;4423792;28;658646;-69
2023/04/21 01:01:19;;;;;;;18.47;6.23;;;8.60;99.90;;;;;;4449859;28;659073;-70
2023/04/21 01:04:09;;;;;;;17.00;6.43;;;8.80;99.90;;;;;;4434759;28;659661;-70
2023/04/21 01:06:56;;;;;;;15.80;6.20;;;8.80;99.90;;;;;;4420135;28;659808;-69
2023/04/21 01:09:44;;;;;;;21.43;6.40;;;8.90;99.90;;;;;;4437529;28;659224;-70
2023/04/21 01:12:32;;;;;;;14.83;6.57;;;8.90;99.90;;;;;;4434132;28;658599;-70
2023/04/21 01:15:19;;;;;;;15.83;6.20;;;9.00;99.90;;;;;;4449043;28;658943;-71
2023/04/21 01:18:06;;;;;;;12.50;6.13;;;9.10;99.90;;;;;;4429844;28;658988;-69
2023/04/21 01:20:53;;;;;;;15.80;6.60;;;9.10;99.90;;;;;;4452559;28;659146;-70
2023/04/21 01:23:42;;;;;;;12.37;6.27;;;9.20;99.90;;;;;;4424652;28;658591;-70
2023/04/21 01:26:29;;;;;;;9.60;6.00;;;9.20;99.90;;;;;;4454045;28;658713;-70
2023/04/21 01:29:16;;;;;;;13.97;6.70;;;9.30;99.90;;;;;;4426367;28;657815;-70
2023/04/21 01:32:05;;;;;;;13.27;6.43;;;9.30;99.90;;;;;;4445179;28;659195;-69
2023/04/21 01:34:53;;;;;;;12.53;5.93;;;9.30;99.90;;;;;;4421497;28;660260;-71
2023/04/21 01:37:40;;;;;;;19.10;6.20;;;9.30;99.90;;;;;;4443750;28;658974;-71
2023/04/21 01:40:29;;;;;;;22.73;6.47;;;9.30;99.90;;;;;;4457693;28;658823;-70
2023/04/21 01:43:17;;;;;;;16.53;7.33;;;9.40;99.90;;;;;;4420594;28;658581;-72
2023/04/21 01:46:04;;;;;;;16.35;6.50;;;9.40;99.90;;;;;;4445642;28;658870;-70
2023/04/21 01:48:51;;;;;;;18.27;6.93;;;9.40;99.90;;;;;;4434860;28;658705;-70
2023/04/21 01:51:39;;;;;;;18.57;6.13;;;9.30;99.90;;;;;;4445605;28;658199;-70
2023/04/21 01:54:26;;;;;;;23.07;6.70;;;9.30;99.90;;;;;;4423170;28;658817;-70
2023/04/21 01:57:15;;;;;;;17.43;7.23;;;9.30;99.90;;;;;;4448326;28;658986;-71
2023/04/21 02:00:02;;;;;;;15.90;6.50;;;9.20;99.90;;;;;;4412473;28;659546;-70
2023/04/21 02:02:49;;;;;;;14.50;6.20;;;9.20;99.90;;;;;;4462321;28;658296;-70
2023/04/21 02:05:36;;;;;;;14.67;6.47;;;9.10;99.90;;;;;;4432701;28;659378;-71
2023/04/21 02:08:23;;;;;;;22.17;6.90;;;9.00;99.90;;;;;;4452870;28;659167;-71
2023/04/21 02:11:11;;;;;;;14.23;6.53;;;8.90;99.90;;;;;;4430979;28;659215;-71
2023/04/21 02:13:59;;;;;;;12.83;6.60;;;8.80;99.90;;;;;;4442374;28;659537;-69
2023/04/21 02:16:47;;;;;;;13.10;6.20;;;8.70;99.90;;;;;;4431205;28;659414;-70
2023/04/21 02:19:34;;;;;;;18.93;6.60;;;8.50;99.90;;;;;;4453751;28;660085;-69
2023/04/21 02:22:21;;;;;;;15.37;7.03;;;8.40;99.90;;;;;;4423606;28;659411;-72
2023/04/21 02:25:09;;;;;;;14.43;6.30;;;8.30;99.90;;;;;;4436203;28;659284;-69
2023/04/21 02:27:56;;;;;;;13.75;6.25;;;8.20;99.90;;;;;;4423930;28;658713;-69
2023/04/21 02:30:45;;;;;;;16.57;6.47;;;8.10;99.90;;;;;;4442709;28;659020;-73
2023/04/21 02:33:32;;;;;;;17.90;6.80;;;8.00;99.90;;;;;;4416728;28;659329;-69
2023/04/21 02:36:19;;;;;;;19.93;7.23;;;7.80;99.90;;;;;;4454947;28;658934;-72
2023/04/21 02:39:06;;;;;;;13.97;6.63;;;7.80;99.90;;;;;;4420691;28;658524;-69
2023/04/21 02:41:54;;;;;;;16.83;6.63;;;7.70;99.90;;;;;;4452854;28;658369;-69
2023/04/21 02:44:42;;;;;;;16.00;6.70;;;7.60;99.90;;;;;;4343361;28;658892;-72
2023/04/21 02:47:30;;;;;;;13.57;6.33;;;7.50;99.90;;;;;;4252771;28;658771;-73
2023/04/21 02:50:18;;;;;;;13.57;6.53;;;7.40;99.90;;;;;;4241004;28;659615;-71
2023/04/21 02:53:05;;;;;;;20.07;7.10;;;7.30;99.90;;;;;;4424288;28;659535;-72
2023/04/21 02:55:52;;;;;;;19.73;6.30;;;7.10;99.90;;;;;;4458594;28;659306;-70
2023/04/21 02:58:40;;;;;;;15.93;6.50;;;7.10;99.90;;;;;;4442507;28;658845;-70
2023/04/21 03:01:27;;;;;;;20.77;6.67;;;7.00;99.90;;;;;;4431228;28;660067;-70
2023/04/21 03:04:18;;;;;;;17.60;5.90;;;6.90;99.90;;;;;;4441946;28;659722;-72
2023/04/21 03:07:05;;;;;;;15.43;6.65;;;6.80;99.90;;;;;;4414186;28;659712;-72
2023/04/21 03:09:52;;;;;;;17.40;6.17;;;6.80;99.90;;;;;;4442849;28;659893;-71
2023/04/21 03:12:40;;;;;;;15.97;6.10;;;6.70;99.90;;;;;;4427793;28;658784;-72
2023/04/21 03:15:28;;;;;;;24.33;7.03;;;6.70;99.90;;;;;;4435808;28;658371;-70
2023/04/21 03:18:15;;;;;;;17.57;6.90;;;6.60;99.90;;;;;;4423877;28;659279;-70
2023/04/21 03:21:04;;;;;;;21.87;6.13;;;6.50;99.90;;;;;;4441846;28;658999;-71
2023/04/21 03:23:52;;;;;;;20.93;7.30;;;6.40;99.90;;;;;;4407462;28;658750;-70
2023/04/21 03:26:40;;;;;;;14.83;6.57;;;6.40;99.90;;;;;;4448882;28;659143;-71
2023/04/21 03:29:27;;;;;;;14.53;6.77;;;6.30;99.90;;;;;;4442720;28;658204;-70
2023/04/21 03:32:15;;;;;;;15.53;6.63;;;6.20;99.90;;;;;;4433300;28;658339;-71
2023/04/21 03:35:02;;;;;;;14.53;6.27;;;6.10;99.90;;;;;;4412658;28;659653;-71
2023/04/21 03:37:50;;;;;;;18.50;6.73;;;6.10;99.90;;;;;;4454311;28;659512;-71
2023/04/21 03:40:38;;;;;;;14.13;6.80;;;6.00;99.90;;;;;;4413880;28;658939;-70
2023/04/21 03:43:25;;;;;;;21.80;7.27;;;5.90;99.90;;;;;;4446173;28;658636;-72
2023/04/21 03:46:19;;;;;;;15.47;6.53;;;5.90;99.90;;;;;;4447419;28;659236;-70
2023/04/21 03:49:06;;;;;;;13.93;7.03;;;5.80;99.90;;;;;;4393264;28;658971;-70
2023/04/21 03:51:53;;;;;;;17.77;7.17;;;5.80;99.90;;;;;;4456262;28;659757;-70
2023/04/21 03:54:42;;;;;;;19.87;6.80;;;5.80;99.90;;;;;;4429823;28;658244;-71
2023/04/21 03:57:29;;;;;;;17.97;7.37;;;5.80;99.90;;;;;;4434061;28;658921;-71
2023/04/21 04:00:16;;;;;;;15.63;7.43;;;5.70;99.90;;;;;;4417018;28;658466;-70
2023/04/21 04:03:04;;;;;;;21.93;7.13;;;5.70;99.90;;;;;;4433527;28;659073;-70
2023/04/21 04:05:51;;;;;;;15.33;6.60;;;5.70;99.90;;;;;;4424540;28;658502;-70
2023/04/21 04:08:39;;;;;;;15.23;7.00;;;5.80;99.90;;;;;;4438838;28;659264;-72
2023/04/21 04:11:27;;;;;;;19.43;7.90;;;5.70;99.90;;;;;;4433272;28;659230;-71
2023/04/21 04:14:14;;;;;;;19.27;7.43;;;5.80;99.90;;;;;;4448879;28;658779;-70
2023/04/21 04:17:02;;;;;;;17.57;6.60;;;5.80;99.90;;;;;;4431823;28;659084;-71
2023/04/21 04:19:49;;;;;;;15.87;7.03;;;5.80;99.90;;;;;;4432942;28;659113;-71
2023/04/21 04:22:36;;;;;;;17.67;7.30;;;5.80;99.90;;;;;;4420084;28;658938;-70
2023/04/21 04:25:24;;;;;;;13.50;6.90;;;5.90;99.90;;;;;;4455274;28;659495;-71
2023/04/21 04:28:14;;;;;;;20.43;7.53;;;5.90;99.90;;;;;;4430981;28;658572;-70
2023/04/21 04:31:01;;;;;;;25.87;6.83;;;5.90;99.90;;;;;;4428614;28;659559;-69
2023/04/21 04:33:49;;;;;;;13.63;7.20;;;6.00;99.90;;;;;;4448107;28;659325;-70
2023/04/21 04:36:36;;;;;;;20.30;7.33;;;6.10;99.90;;;;;;4425869;28;660213;-70
2023/04/21 04:39:24;;;;;;;23.93;7.87;;;6.10;99.90;;;;;;4437181;28;659693;-70
2023/04/21 04:42:11;;;;;;;71.95;21.25;;;6.20;99.90;;;;;;4427660;28;658950;-70
2023/04/21 04:45:00;;;;;;;166.80;41.17;;;6.30;99.90;;;;;;4443035;28;659678;-71
2023/04/21 04:47:48;;;;;;;173.20;45.60;;;6.40;99.90;;;;;;4425636;28;660987;-70
2023/04/21 04:50:35;;;;;;;180.67;45.87;;;6.50;99.90;;;;;;4411372;28;661259;-72
2023/04/21 04:53:23;;;;;;;165.03;44.43;;;6.60;99.90;;;;;;4436115;28;661676;-71
2023/04/21 04:56:10;;;;;;;99.23;30.43;;;6.70;99.90;;;;;;4425994;28;661029;-72
2023/04/21 04:58:57;;;;;;;70.60;22.27;;;6.80;99.90;;;;;;4446375;28;659866;-71
2023/04/21 05:01:46;;;;;;;50.53;17.20;;;7.00;99.90;;;;;;4441693;28;658683;-70
2023/04/21 05:04:34;;;;;;;31.60;11.80;;;7.20;99.90;;;;;;4425458;28;660038;-71
2023/04/21 05:07:21;;;;;;;28.00;9.63;;;7.40;99.90;;;;;;4419675;28;661437;-71
2023/04/21 05:10:08;;;;;;;21.70;7.20;;;7.50;99.90;;;;;;4438182;28;659339;-71
2023/04/21 05:12:55;;;;;;;20.13;7.57;;;7.70;99.90;;;;;;4436151;28;658547;-72
2023/04/21 05:15:43;;;;;;;13.70;6.53;;;7.80;99.90;;;;;;4444397;28;659250;-72
2023/04/21 05:18:32;;;;;;;21.50;7.17;;;8.00;99.90;;;;;;4435063;28;658846;-72
2023/04/21 05:21:23;;;;;;;13.37;6.50;;;8.20;99.90;;;;;;4445992;28;659259;-73
2023/04/21 05:24:11;;;;;;;17.47;7.10;;;8.50;99.90;;;;;;4390983;28;659554;-72
2023/04/21 05:26:58;;;;;;;16.90;5.63;;;8.60;99.90;;;;;;4450948;28;658938;-73
2023/04/21 05:29:45;;;;;;;21.50;6.50;;;8.80;99.90;;;;;;4417918;28;659310;-72
2023/04/21 05:32:32;;;;;;;21.90;5.90;;;9.00;99.90;;;;;;4455158;28;658781;-73
2023/04/21 05:35:22;;;;;;;22.73;7.13;;;9.20;99.90;;;;;;4435282;28;658811;-72
2023/04/21 05:38:09;;;;;;;17.53;6.53;;;9.40;99.90;;;;;;4447615;28;660138;-72
2023/04/21 05:40:56;;;;;;;20.17;6.90;;;9.70;99.90;;;;;;4413472;28;658721;-73
2023/04/21 05:43:43;;;;;;;17.80;5.72;;;9.80;99.90;;;;;;4431492;28;658920;-72
2023/04/21 05:46:33;;;;;;;21.93;6.50;;;10.10;99.90;;;;;;4416290;28;658761;-72
2023/04/21 05:49:20;;;;;;;12.57;6.78;;;10.30;99.90;;;;;;4420536;28;660526;-72
2023/04/21 05:52:10;;;;;;;19.67;6.53;;;10.50;99.90;;;;;;4436848;28;659803;-73
2023/04/21 05:54:58;;;;;;;15.48;6.10;;;10.70;99.90;;;;;;4413802;28;659840;-73
2023/04/21 05:57:45;;;;;;;15.07;6.10;;;10.90;99.90;;;;;;4433645;28;659803;-72
2023/04/21 06:00:32;;;;;;;13.70;6.27;;;11.10;99.90;;;;;;4447529;28;659801;-73
2023/04/21 06:03:20;;;;;;;15.43;6.27;;;11.20;99.90;;;;;;4440335;28;660389;-73
2023/04/21 06:06:08;;;;;;;15.33;5.70;;;11.40;99.90;;;;;;4443978;28;659838;-73
2023/04/21 06:08:57;;;;;;;21.17;5.50;;;11.70;99.90;;;;;;4437003;28;659474;-73
2023/04/21 06:11:44;;;;;;;17.67;6.03;;;11.90;99.90;;;;;;4445751;28;659082;-73
2023/04/21 06:14:31;;;;;;;22.27;5.33;;;12.10;99.90;;;;;;4393908;28;659556;-73
2023/04/21 06:17:18;;;;;;;15.20;5.57;;;12.40;99.90;;;;;;4413649;28;660752;-72
2023/04/21 06:20:07;;;;;;;17.90;5.50;;;12.50;99.90;;;;;;4395768;28;660658;-73
2023/04/21 06:22:54;;;;;;;18.77;5.07;;;12.70;99.90;;;;;;4407830;28;664801;-72
2023/04/21 06:25:43;;;;;;;17.43;4.57;;;13.00;99.90;;;;;;4389604;28;660597;-73
2023/04/21 06:28:31;;;;;;;12.95;4.90;;;13.20;99.90;;;;;;4393103;28;659386;-72
2023/04/21 06:31:18;;;;;;;13.70;5.03;;;13.40;99.90;;;;;;4410002;28;659925;-73
2023/04/21 06:34:05;;;;;;;14.03;4.87;;;13.60;99.90;;;;;;4392311;28;659628;-73
2023/04/21 06:36:53;;;;;;;18.00;5.20;;;13.80;99.90;;;;;;4417413;28;660351;-73
2023/04/21 06:39:40;;;;;;;12.20;4.53;;;13.90;99.90;;;;;;4404488;28;659716;-73
2023/04/21 06:42:29;;;;;;;17.23;4.70;;;14.10;99.90;;;;;;4413818;28;659466;-73
2023/04/21 06:45:16;;;;;;;19.23;4.70;;;14.30;99.90;;;;;;4390036;28;659979;-73
2023/04/21 06:48:03;;;;;;;16.67;4.83;;;14.40;96.90;;;;;;4412190;28;660118;-73
2023/04/21 06:50:51;;;;;;;18.17;4.50;;;14.50;94.10;;;;;;4398761;28;659383;-73
2023/04/21 06:53:38;;;;;;;12.93;5.10;;;14.70;93.50;;;;;;4417876;28;660595;-73
2023/04/21 06:56:27;;;;;;;9.73;4.90;;;14.80;91.80;;;;;;4393777;28;659604;-72
2023/04/21 06:59:15;;;;;;;11.03;4.70;;;14.90;90.80;;;;;;4411794;28;658704;-72
2023/04/21 07:02:02;;;;;;;12.50;4.57;;;15.00;89.80;;;;;;4395494;28;660063;-72
2023/04/21 07:04:50;;;;;;;9.90;4.87;;;15.00;90.20;;;;;;4404571;28;659920;-73
2023/04/21 07:07:37;;;;;;;15.90;5.10;;;15.20;90.40;;;;;;4388165;28;659832;-72
2023/04/21 07:10:24;;;;;;;11.30;4.77;;;15.30;85.40;;;;;;4412914;28;659317;-73
2023/04/21 07:13:11;;;;;;;11.77;5.37;;;15.40;81.40;;;;;;4403356;28;660193;-74
2023/04/21 07:16:00;;;;;;;14.73;4.53;;;15.50;78.70;;;;;;4430548;28;660669;-73
2023/04/21 07:18:47;;;;;;;10.77;4.57;;;15.70;79.50;;;;;;4414869;28;660471;-72
2023/04/21 07:21:35;;;;;;;10.23;4.33;;;15.80;79.10;;;;;;4429663;28;660814;-72
2023/04/21 07:24:22;;;;;;;10.27;4.87;;;16.00;77.80;;;;;;4424883;28;660877;-73
2023/04/21 07:27:09;;;;;;;13.50;4.97;;;16.20;78.70;;;;;;4435394;28;659426;-73
2023/04/21 07:29:56;;;;;;;11.77;5.00;;;16.30;75.00;;;;;;4431594;28;660299;-72
2023/04/21 07:32:45;;;;;;;13.10;5.20;;;16.40;73.10;;;;;;4434556;28;659911;-72
2023/04/21 07:35:32;;;;;;;15.27;5.10;;;16.50;73.40;;;;;;4423658;28;659849;-72
2023/04/21 07:38:19;;;;;;;10.40;5.10;;;16.60;73.10;;;;;;4434336;28;660928;-72
2023/04/21 07:41:06;;;;;;;12.70;5.27;;;16.70;72.10;;;;;;4408327;28;659882;-72
2023/04/21 07:43:54;;;;;;;10.30;5.47;;;16.90;73.40;;;;;;4440705;28;659944;-72
2023/04/21 07:46:41;;;;;;;12.10;5.23;;;16.90;68.40;;;;;;4438075;28;659783;-73
2023/04/21 07:49:30;;;;;;;11.60;5.10;;;16.90;67.90;;;;;;4439119;28;660313;-72
2023/04/21 07:52:17;;;;;;;14.60;5.20;;;17.00;69.90;;;;;;4420582;28;660787;-72
2023/04/21 07:55:05;;;;;;;12.53;5.60;;;17.10;67.60;;;;;;4438058;27;659678;-74
2023/04/21 07:57:52;;;;;;;12.57;5.90;;;17.30;68.70;;;;;;4431916;28;661092;-73
2023/04/21 08:00:39;;;;;;;12.27;5.70;;;17.50;67.70;;;;;;4441680;28;659746;-73
2023/04/21 08:03:26;;;;;;;13.80;5.50;;;17.50;68.00;;;;;;4419019;28;659671;-72
2023/04/21 08:06:15;;;;;;;12.50;5.90;;;17.70;68.10;;;;;;4453676;28;660348;-73
2023/04/21 08:09:03;;;;;;;14.67;5.77;;;18.00;65.10;;;;;;4432565;28;660507;-72
2023/04/21 08:11:50;;;;;;;12.73;6.10;;;18.10;65.70;;;;;;4432229;28;659547;-73
2023/04/21 08:14:37;;;;;;;13.90;5.73;;;18.10;60.50;;;;;;4457922;28;660188;-73
2023/04/21 08:17:25;;;;;;;11.43;6.40;;;18.20;63.20;;;;;;4435200;28;660615;-72
2023/04/21 08:20:13;;;;;;;11.43;5.50;;;18.30;60.70;;;;;;4444783;28;660825;-72
2023/04/21 08:23:02;;;;;;;14.67;6.43;;;18.40;61.70;;;;;;4439914;28;661086;-72
2023/04/21 08:25:49;;;;;;;11.87;5.50;;;18.70;58.20;;;;;;4447761;28;659411;-72
2023/04/21 08:28:36;;;;;;;13.37;5.77;;;18.80;59.40;;;;;;4424033;28;659664;-72
2023/04/21 08:31:23;;;;;;;12.30;5.70;;;19.00;58.90;;;;;;4440758;28;660193;-72
2023/04/21 08:34:11;;;;;;;12.90;5.97;;;19.30;60.00;;;;;;4428148;28;660197;-72
2023/04/21 08:36:58;;;;;;;14.27;5.87;;;19.70;57.90;;;;;;4442466;28;660603;-72
2023/04/21 08:39:47;;;;;;;9.23;5.83;;;19.90;56.90;;;;;;4426490;28;659233;-72
2023/04/21 08:42:34;;;;;;;8.27;5.70;;;19.90;54.90;;;;;;4445762;28;659145;-72
2023/04/21 08:45:21;;;;;;;13.50;6.43;;;20.00;50.70;;;;;;4432337;28;658977;-72
2023/04/21 08:48:09;;;;;;;10.20;5.93;;;20.50;52.60;;;;;;4387630;28;660399;-72
2023/04/21 08:50:56;;;;;;;10.67;6.07;;;20.70;48.40;;;;;;4243143;28;660267;-72
2023/04/21 08:53:45;;;;;;;13.53;6.80;;;20.60;47.40;;;;;;4268584;28;659255;-72
2023/04/21 08:56:33;;;;;;;10.87;6.00;;;21.00;47.20;;;;;;4418811;28;660028;-72
2023/04/21 08:59:21;;;;;;;14.07;6.80;;;21.00;43.00;;;;;;4428146;28;660039;-72
2023/04/21 09:02:09;;;;;;;11.37;6.60;;;20.90;42.80;;;;;;4442444;28;660423;-72
2023/04/21 09:04:58;;;;;;;9.93;6.33;;;21.10;45.10;;;;;;4420378;28;660032;-73
2023/04/21 09:07:45;;;;;;;14.23;6.00;;;21.10;46.40;;;;;;4431763;28;658622;-73
2023/04/21 09:10:32;;;;;;;13.37;7.10;;;21.50;46.10;;;;;;4447323;28;660084;-73
2023/04/21 09:13:22;;;;;;;12.57;6.50;;;21.50;44.20;;;;;;4444939;28;659698;-72
2023/04/21 09:16:15;;;;;;;9.53;5.77;;;21.40;45.00;;;;;;4429334;28;659667;-72
2023/04/21 09:19:03;;;;;;;8.47;5.20;;;21.20;40.30;;;;;;4396641;28;659548;-73
2023/04/21 09:21:50;;;;;;;17.30;6.30;;;21.50;43.10;;;;;;4444331;28;658229;-73
2023/04/21 09:24:37;;;;;;;9.33;5.17;;;21.40;39.60;;;;;;4447489;28;661309;-73
2023/04/21 09:27:25;;;;;;;9.20;5.47;;;21.50;40.50;;;;;;4441413;28;658378;-73
2023/04/21 09:30:14;;;;;;;12.27;5.77;;;21.50;42.50;;;;;;4457325;28;660086;-73
2023/04/21 09:33:02;;;;;;;14.00;6.00;;;20.90;38.40;;;;;;4432504;28;659687;-73
2023/04/21 09:35:49;;;;;;;9.50;6.20;;;20.90;41.40;;;;;;4441297;28;660478;-72
2023/04/21 09:38:36;;;;;;;9.70;6.03;;;20.90;38.80;;;;;;4422777;28;658842;-73
2023/04/21 09:41:24;;;;;;;8.90;5.30;;;20.10;39.70;;;;;;4440198;28;659519;-73
2023/04/21 09:44:11;;;;;;;8.37;5.67;;;19.90;40.40;;;;;;4425752;28;658505;-73
2023/04/21 09:47:01;;;;;;;13.20;6.13;;;20.00;41.40;;;;;;4440225;28;659319;-73
2023/04/21 09:49:48;;;;;;;12.07;6.37;;;20.60;44.10;;;;;;4415573;28;660448;-73
2023/04/21 09:52:36;;;;;;;12.10;6.13;;;20.50;41.20;;;;;;4415346;28;659667;-73
2023/04/21 09:55:28;;;;;;;10.93;5.70;;;20.20;43.50;;;;;;4434101;28;659862;-73
2023/04/21 09:58:15;;;;;;;9.23;6.50;;;20.20;41.20;;;;;;4410366;28;659852;-72
2023/04/21 10:01:03;;;;;;;15.13;6.87;;;20.60;45.80;;;;;;4457093;28;660551;-73
2023/04/21 10:03:52;;;;;;;12.40;6.73;;;21.20;45.40;;;;;;4426053;28;660349;-73
2023/04/21 10:06:39;;;;;;;17.83;7.13;;;21.60;42.40;;;;;;4437709;28;659311;-72
2023/04/21 10:09:30;;;;;;;11.10;6.57;;;21.50;41.30;;;;;;4437011;28;659391;-72
2023/04/21 10:12:17;;;;;;;14.30;6.70;;;21.60;40.30;;;;;;4431127;28;661581;-74
2023/04/21 10:15:06;;;;;;;10.97;6.67;;;21.50;41.00;;;;;;4449242;28;660307;-73
2023/04/21 10:17:53;;;;;;;12.93;7.23;;;20.90;39.70;;;;;;4428982;28;660410;-73
2023/04/21 10:20:57;;;;;;;14.07;6.43;;;20.00;41.10;;;;;;4432012;27;659397;-73
2023/04/21 10:23:46;;;;;;;14.20;6.83;;;19.60;41.70;;;;;;4410995;28;659792;-73
2023/04/21 10:26:34;;;;;;;10.80;6.30;;;18.60;41.60;;;;;;4407727;28;659912;-73
2023/04/21 10:29:28;;;;;;;14.40;6.47;;;19.20;45.10;;;;;;4425138;28;659751;-73
2023/04/21 10:32:22;;;;;;;13.13;7.13;;;20.10;46.30;;;;;;4398052;28;660110;-73
2023/04/21 10:35:10;;;;;;;12.18;6.40;;;20.30;42.50;;;;;;4417273;28;659963;-73
2023/04/21 10:37:59;;;;;;;13.73;6.53;;;19.70;41.10;;;;;;4430438;28;660384;-73
2023/04/21 10:40:46;;;;;;;15.03;6.73;;;19.20;43.90;;;;;;4418943;28;660113;-73
2023/04/21 10:43:42;;;;;;;9.57;6.73;;;19.60;47.50;;;;;;4437856;28;660661;-73
2023/04/21 10:46:34;;;;;;;9.47;6.20;;;20.30;44.60;;;;;;4406983;28;659512;-73
2023/04/21 10:49:22;;;;;;;12.03;6.77;;;20.10;42.90;;;;;;4434734;28;658706;-73
2023/04/21 10:52:11;;;;;;;10.97;6.30;;;19.40;42.30;;;;;;4449309;28;659566;-73
2023/04/21 10:55:17;;;;;;;9.97;5.57;;;18.90;43.20;;;;;;4429603;28;661083;-73
2023/04/21 10:58:05;;;;;;;14.00;5.77;;;19.10;44.90;;;;;;4433404;28;658906;-73
2023/04/21 11:00:54;;;;;;;7.63;5.07;;;20.00;45.20;;;;;;4425726;28;660161;-73
2023/04/21 11:03:42;;;;;;;12.60;5.10;;;21.00;45.30;;;;;;4431384;28;659498;-73
2023/04/21 11:06:29;;;;;;;9.17;4.90;;;21.30;39.30;;;;;;4453320;28;659329;-73
2023/04/21 11:09:16;;;;;;;7.13;4.50;;;21.50;39.00;;;;;;4430007;28;658848;-73
2023/04/21 11:12:06;;;;;;;8.53;4.57;;;21.80;40.00;;;;;;4452107;28;659021;-73
2023/04/21 11:14:54;;;;;;;5.47;4.03;;;22.30;36.90;;;;;;4410962;28;658894;-73
2023/04/21 11:17:42;;;;;;;7.97;4.57;;;22.60;39.70;;;;;;4422520;28;658650;-73
2023/04/21 11:20:29;;;;;;;6.93;4.20;;;22.50;34.80;;;;;;4433283;28;658456;-73
2023/04/21 11:23:18;;;;;;;7.20;5.17;;;22.30;37.00;;;;;;4413280;28;660371;-73
2023/04/21 11:26:05;;;;;;;8.43;4.30;;;22.00;37.40;;;;;;4430095;28;658218;-73
2023/04/21 11:28:54;;;;;;;7.30;4.37;;;22.00;35.90;;;;;;4454792;28;659266;-72
2023/04/21 11:31:42;;;;;;;10.93;4.50;;;22.30;36.50;;;;;;4414189;28;658619;-73
2023/04/21 11:34:29;;;;;;;8.20;4.27;;;22.60;37.60;;;;;;4428961;28;659711;-72
2023/04/21 11:37:24;;;;;;;7.70;4.47;;;22.60;35.50;;;;;;4418938;28;660242;-73
2023/04/21 11:40:12;;;;;;;7.07;4.57;;;23.10;38.90;;;;;;4422432;28;658742;-73
2023/04/21 11:42:59;;;;;;;8.63;4.40;;;23.80;38.30;;;;;;4438357;28;658439;-73
2023/04/21 11:45:50;;;;;;;9.95;4.90;;;23.80;41.50;;;;;;4430723;28;658772;-73
2023/04/21 11:48:37;;;;;;;9.35;5.68;;;24.20;37.50;;;;;;4419978;28;660168;-73
2023/04/21 11:51:24;;;;;;;9.30;5.05;;;24.60;36.20;;;;;;4447092;28;658849;-73
2023/04/21 11:54:12;;;;;;;8.52;5.05;;;24.50;35.00;;;;;;4418440;28;658842;-73
2023/04/21 11:57:00;;;;;;;6.35;3.95;;;23.60;34.50;;;;;;4437506;28;658514;-73
2023/04/21 11:59:48;;;;;;;6.17;4.50;;;23.00;34.90;;;;;;4427453;28;659009;-73
2023/04/21 12:02:36;;;;;;;7.80;4.30;;;22.60;37.20;;;;;;4433016;28;659090;-73
2023/04/21 12:05:24;;;;;;;7.27;4.43;;;22.50;36.00;;;;;;4433335;28;660982;-73
2023/04/21 12:08:14;;;;;;;8.23;4.50;;;22.00;35.90;;;;;;4426091;28;658727;-74
2023/04/21 12:11:02;;;;;;;6.90;4.07;;;22.50;34.20;;;;;;4419028;28;659757;-73
2023/04/21 12:13:50;;;;;;;8.40;4.20;;;22.40;34.40;;;;;;4438649;28;660050;-72
2023/04/21 12:16:37;;;;;;;7.00;4.50;;;23.20;34.90;;;;;;4435249;28;659498;-73
2023/04/21 12:19:35;;;;;;;6.97;4.37;;;23.50;33.50;;;;;;4436478;28;658873;-73
2023/04/21 12:22:22;;;;;;;8.20;4.03;;;23.50;36.60;;;;;;4415690;28;659153;-73
2023/04/21 12:25:10;;;;;;;9.23;4.30;;;23.60;33.50;;;;;;4442430;28;658833;-73
2023/04/21 12:27:58;;;;;;;11.10;4.22;;;23.50;34.00;;;;;;4427050;28;659923;-72
2023/04/21 12:30:45;;;;;;;8.13;4.50;;;22.80;33.90;;;;;;4432660;28;659715;-73
2023/04/21 12:33:32;;;;;;;7.93;4.43;;;22.70;36.90;;;;;;4450014;28;658638;-73
2023/04/21 12:36:22;;;;;;;10.07;4.50;;;22.80;34.90;;;;;;4447164;28;658889;-73
2023/04/21 12:39:09;;;;;;;7.50;4.40;;;22.90;36.00;;;;;;4443922;28;659427;-73
2023/04/21 12:41:57;;;;;;;7.20;3.93;;;23.20;36.40;;;;;;4426868;28;658564;-72
2023/04/21 12:44:44;;;;;;;5.85;4.18;;;23.50;34.40;;;;;;4435156;28;659264;-73
2023/04/21 12:47:31;;;;;;;12.80;4.50;;;23.50;37.00;;;;;;4417112;28;658643;-73
2023/04/21 12:50:18;;;;;;;7.38;4.18;;;24.10;36.40;;;;;;4448156;28;660625;-72
2023/04/21 12:53:07;;;;;;;8.77;4.50;;;23.80;35.30;;;;;;4421058;28;658832;-73
2023/04/21 12:55:54;;;;;;;7.20;4.50;;;22.80;33.30;;;;;;4445734;28;658972;-72
2023/04/21 12:58:42;;;;;;;8.63;4.60;;;21.70;34.70;;;;;;4429322;28;659216;-73
2023/04/21 13:01:29;;;;;;;9.30;4.60;;;21.10;36.70;;;;;;4428164;28;658928;-73
2023/04/21 13:04:16;;;;;;;8.83;4.43;;;21.60;38.50;;;;;;4439172;28;658473;-73
2023/04/21 13:07:03;;;;;;;7.77;3.90;;;22.40;37.60;;;;;;4449687;28;659953;-72
2023/04/21 13:09:52;;;;;;;5.63;3.23;;;22.80;34.70;;;;;;4414695;28;658793;-73
2023/04/21 13:12:40;;;;;;;5.17;3.67;;;22.90;32.50;;;;;;4435532;28;659245;-73
2023/04/21 13:15:27;;;;;;;8.57;3.73;;;23.20;33.50;;;;;;4431403;28;659429;-73
2023/04/21 13:18:14;;;;;;;4.33;3.40;;;22.90;32.50;;;;;;4457375;28;658588;-73
2023/04/21 13:21:01;;;;;;;5.27;3.50;;;22.80;30.70;;;;;;4428524;28;659755;-72
2023/04/21 13:23:49;;;;;;;7.50;3.50;;;22.70;33.30;;;;;;4434962;28;659164;-73
2023/04/21 13:26:37;;;;;;;8.30;3.60;;;23.30;35.30;;;;;;4419989;28;658920;-73
2023/04/21 13:29:28;;;;;;;5.57;3.40;;;23.80;33.70;;;;;;4456061;28;658821;-73
2023/04/21 13:32:15;;;;;;;4.07;3.00;;;24.20;30.70;;;;;;4421212;28;659668;-73
2023/04/21 13:35:07;;;;;;;8.15;4.10;;;24.60;32.20;;;;;;4457189;28;659439;-73
2023/04/21 13:37:54;;;;;;;4.55;3.50;;;24.30;31.50;;;;;;4429551;28;658567;-73
2023/04/21 13:40:42;;;;;;;5.05;3.25;;;23.50;32.50;;;;;;4425002;28;659366;-72
2023/04/21 13:43:30;;;;;;;6.78;3.92;;;22.30;32.40;;;;;;4433069;28;658922;-73
2023/04/21 13:46:18;;;;;;;10.50;3.30;;;22.50;35.20;;;;;;4428289;28;659583;-73
2023/04/21 13:49:06;;;;;;;6.20;3.60;;;23.00;33.10;;;;;;4413250;28;659929;-73
2023/04/21 13:51:53;;;;;;;4.13;3.10;;;23.40;36.80;;;;;;4458601;28;659444;-72
2023/04/21 13:54:40;;;;;;;8.90;3.80;;;23.50;34.20;;;;;;4426544;28;659500;-72
2023/04/21 13:57:27;;;;;;;6.88;3.33;;;23.70;32.10;;;;;;4444417;28;659991;-72
2023/04/21 14:00:17;;;;;;;7.30;3.20;;;23.90;31.70;;;;;;4446205;28;658801;-72
2023/04/21 14:03:05;;;;;;;5.47;3.05;;;24.30;32.90;;;;;;4448430;28;658464;-72
2023/04/21 14:05:52;;;;;;;6.25;3.70;;;24.90;32.50;;;;;;4458372;28;659168;-72
2023/04/21 14:08:40;;;;;;;5.93;3.47;;;24.30;29.60;;;;;;4437233;28;658883;-73
2023/04/21 14:11:27;;;;;;;5.32;3.33;;;24.60;32.70;;;;;;4459914;28;659439;-73
2023/04/21 14:14:15;;;;;;;4.53;3.60;;;24.50;31.40;;;;;;4433069;28;658572;-73
2023/04/21 14:17:04;;;;;;;5.63;3.58;;;24.40;31.20;;;;;;4431008;28;660513;-73
2023/04/21 14:19:51;;;;;;;5.30;3.25;;;24.30;34.20;;;;;;4417776;28;658674;-73